createdAt,value
2018-07-14T00:00:02.206Z,13.5
2018-07-14T00:01:02.263Z,13.5
2018-07-14T00:02:02.142Z,13.5
2018-07-14T00:03:02.087Z,13.3
2018-07-14T00:04:04.272Z,13.3
2018-07-14T00:05:02.214Z,13.3
2018-07-14T00:06:02.138Z,13.3
2018-07-14T00:07:02.211Z,13.3
2018-07-14T00:08:02.126Z,13.2
2018-07-14T00:09:02.125Z,13.2
2018-07-14T00:10:02.321Z,13.2
2018-07-14T00:11:02.163Z,13.2
2018-07-14T00:12:02.173Z,13.2
2018-07-14T00:13:02.075Z,13.2
2018-07-14T00:14:18.434Z,13.2
2018-07-14T00:15:02.118Z,13.2
2018-07-14T00:16:02.196Z,13.1
2018-07-14T00:17:02.119Z,13.1
2018-07-14T00:18:02.147Z,13.1
2018-07-14T00:19:02.246Z,13.1
2018-07-14T00:20:02.335Z,13.1
2018-07-14T00:21:02.179Z,13.1
2018-07-14T00:22:02.187Z,13.1
2018-07-14T00:23:02.194Z,13.1
2018-07-14T00:24:02.194Z,13.1
2018-07-14T00:26:14.607Z,13.1
2018-07-14T00:27:14.513Z,13.1
2018-07-14T00:28:14.550Z,13.1
2018-07-14T00:29:14.645Z,13.1
2018-07-14T00:30:14.565Z,13.1
2018-07-14T00:31:14.655Z,13.0
2018-07-14T00:32:14.606Z,13.0
2018-07-14T00:33:14.607Z,13.1
2018-07-14T00:34:14.614Z,13.1
2018-07-14T00:35:14.702Z,13.1
2018-07-14T00:36:24.907Z,13.1
2018-07-14T00:37:14.603Z,13.1
2018-07-14T00:38:14.612Z,13.3
2018-07-14T00:39:14.587Z,13.3
2018-07-14T00:40:14.692Z,13.3
2018-07-14T00:41:14.728Z,13.3
2018-07-14T00:42:14.558Z,13.3
2018-07-14T00:43:14.629Z,13.2
2018-07-14T00:44:14.572Z,13.2
2018-07-14T00:45:14.653Z,13.2
2018-07-14T00:46:14.569Z,13.2
2018-07-14T00:47:14.569Z,13.2
2018-07-14T00:48:14.697Z,13.2
2018-07-14T00:49:14.636Z,13.2
2018-07-14T00:50:14.595Z,13.2
2018-07-14T00:51:14.594Z,13.2
2018-07-14T00:52:14.591Z,13.2
2018-07-14T00:53:14.603Z,13.2
2018-07-14T00:54:15.399Z,13.2
2018-07-14T00:55:14.669Z,13.2
2018-07-14T00:56:14.700Z,13.1
2018-07-14T00:57:14.642Z,13.1
2018-07-14T00:58:14.676Z,13.1
2018-07-14T00:59:14.726Z,13.1
2018-07-14T01:00:14.626Z,13.1
2018-07-14T01:01:14.620Z,13.0
2018-07-14T01:02:14.681Z,13.0
2018-07-14T01:03:14.734Z,13.0
2018-07-14T01:06:24.070Z,13.3
2018-07-14T01:07:25.132Z,13.3
2018-07-14T01:08:25.091Z,13.3
2018-07-14T01:09:25.106Z,13.2
2018-07-14T01:10:25.070Z,13.2
2018-07-14T01:11:25.055Z,13.2
2018-07-14T01:12:25.181Z,13.2
2018-07-14T01:13:25.118Z,13.2
2018-07-14T01:14:25.074Z,13.2
2018-07-14T01:15:25.041Z,13.2
2018-07-14T01:16:25.058Z,13.4
2018-07-14T01:17:25.044Z,13.4
2018-07-14T01:18:25.107Z,13.4
2018-07-14T01:19:25.050Z,13.4
2018-07-14T01:20:25.137Z,13.4
2018-07-14T01:21:25.151Z,13.3
2018-07-14T01:22:25.080Z,13.3
2018-07-14T01:23:25.058Z,13.3
2018-07-14T01:24:25.643Z,13.3
2018-07-14T01:25:25.157Z,13.3
2018-07-14T01:26:25.078Z,13.2
2018-07-14T01:27:25.134Z,13.2
2018-07-14T01:28:25.173Z,13.2
2018-07-14T01:29:25.219Z,13.1
2018-07-14T01:30:25.228Z,13.1
2018-07-14T01:31:25.169Z,13.1
2018-07-14T01:32:25.684Z,13.1
2018-07-14T01:33:25.300Z,13.1
2018-07-14T01:43:03.213Z,12.8
2018-07-14T01:43:16.291Z,12.8
2018-07-14T01:44:17.326Z,13.0
2018-07-14T01:45:17.361Z,13.0
2018-07-14T01:46:17.369Z,13.0
2018-07-14T01:47:17.356Z,13.1
2018-07-14T01:48:17.364Z,13.1
2018-07-14T01:49:17.371Z,13.1
2018-07-14T01:50:17.448Z,13.1
2018-07-14T01:51:17.403Z,13.1
2018-07-14T01:52:17.370Z,13.1
2018-07-14T01:53:17.358Z,13.1
2018-07-14T01:54:17.441Z,13.0
2018-07-14T01:55:17.415Z,13.0
2018-07-14T01:56:17.398Z,13.0
2018-07-14T01:57:17.332Z,13.0
2018-07-14T01:58:17.401Z,13.0
2018-07-14T01:59:17.380Z,13.0
2018-07-14T02:00:17.373Z,12.9
2018-07-14T02:01:17.354Z,12.9
2018-07-14T02:02:17.407Z,12.9
2018-07-14T02:03:17.305Z,12.9
2018-07-14T02:04:17.394Z,12.9
2018-07-14T02:05:17.343Z,12.9
2018-07-14T02:06:17.440Z,12.9
2018-07-14T02:07:17.324Z,12.8
2018-07-14T02:08:17.350Z,12.8
2018-07-14T02:09:18.028Z,12.8
2018-07-14T02:10:17.410Z,12.7
2018-07-14T02:11:17.512Z,12.7
2018-07-14T02:12:17.364Z,12.7
2018-07-14T02:13:17.399Z,12.7
2018-07-14T02:14:17.454Z,12.7
2018-07-14T02:15:17.449Z,12.4
2018-07-14T02:16:17.519Z,12.4
2018-07-14T02:17:17.550Z,12.3
2018-07-14T02:18:17.511Z,12.3
2018-07-14T02:19:17.510Z,12.3
2018-07-14T02:20:17.434Z,12.2
2018-07-14T02:21:17.453Z,12.2
2018-07-14T02:22:17.575Z,12.3
2018-07-14T02:23:17.494Z,12.3
2018-07-14T02:24:17.395Z,12.3
2018-07-14T02:25:17.434Z,12.5
2018-07-14T02:26:17.531Z,12.5
2018-07-14T02:27:17.397Z,12.7
2018-07-14T02:28:18.146Z,12.7
2018-07-14T02:29:17.441Z,12.7
2018-07-14T02:30:17.543Z,12.7
2018-07-14T02:31:17.486Z,12.7
2018-07-14T02:32:17.565Z,12.7
2018-07-14T02:33:17.501Z,12.5
2018-07-14T02:34:17.550Z,12.5
2018-07-14T02:35:17.518Z,12.4
2018-07-14T02:36:17.591Z,12.4
2018-07-14T02:37:17.572Z,12.4
2018-07-14T02:38:19.747Z,12.4
2018-07-14T02:39:17.501Z,12.4
2018-07-14T02:40:17.387Z,12.4
2018-07-14T02:41:17.561Z,12.4
2018-07-14T02:42:17.494Z,12.4
2018-07-14T02:43:17.450Z,12.4
2018-07-14T02:44:17.669Z,12.4
2018-07-14T02:45:17.586Z,12.4
2018-07-14T02:46:17.555Z,12.4
2018-07-14T02:47:17.531Z,12.4
2018-07-14T02:48:17.493Z,12.3
2018-07-14T02:49:17.446Z,12.3
2018-07-14T02:50:17.494Z,12.3
2018-07-14T02:51:17.543Z,12.3
2018-07-14T02:52:17.594Z,12.3
2018-07-14T02:53:17.566Z,12.3
2018-07-14T02:54:17.547Z,12.3
2018-07-14T02:55:17.443Z,12.4
2018-07-14T02:56:17.452Z,12.4
2018-07-14T02:57:17.539Z,12.4
2018-07-14T02:58:27.748Z,12.4
2018-07-14T02:59:17.578Z,12.4
2018-07-14T03:00:17.554Z,12.4
2018-07-14T03:01:17.505Z,12.4
2018-07-14T03:02:17.602Z,12.4
2018-07-14T03:03:17.577Z,12.4
2018-07-14T03:04:17.498Z,12.4
2018-07-14T03:05:17.612Z,12.4
2018-07-14T03:06:17.573Z,12.4
2018-07-14T03:07:17.617Z,12.4
2018-07-14T03:08:18.227Z,12.3
2018-07-14T03:09:17.506Z,12.3
2018-07-14T03:10:17.547Z,12.3
2018-07-14T03:11:17.564Z,12.2
2018-07-14T03:12:17.636Z,12.2
2018-07-14T03:13:17.573Z,12.2
2018-07-14T03:14:17.519Z,12.2
2018-07-14T03:15:17.567Z,12.2
2018-07-14T03:16:17.652Z,12.4
2018-07-14T03:17:17.540Z,12.4
2018-07-14T03:19:10.146Z,12.4
2018-07-14T03:19:18.073Z,12.4
2018-07-14T03:20:18.193Z,12.4
2018-07-14T03:21:18.010Z,12.5
2018-07-14T03:22:18.071Z,12.5
2018-07-14T03:23:18.019Z,12.7
2018-07-14T03:24:18.155Z,12.7
2018-07-14T03:25:18.073Z,12.7
2018-07-14T03:26:18.007Z,12.7
2018-07-14T03:27:18.062Z,12.7
2018-07-14T03:28:18.080Z,12.7
2018-07-14T03:29:19.937Z,12.7
2018-07-14T03:30:18.074Z,12.7
2018-07-14T03:31:18.094Z,12.6
2018-07-14T03:32:18.033Z,12.6
2018-07-14T03:33:18.097Z,12.6
2018-07-14T03:34:18.077Z,12.6
2018-07-14T03:35:18.066Z,12.6
2018-07-14T03:36:18.082Z,12.2
2018-07-14T03:37:18.039Z,12.2
2018-07-14T03:38:18.069Z,12.2
2018-07-14T03:50:21.777Z,12.3
2018-07-14T03:51:21.895Z,12.3
2018-07-14T03:52:21.806Z,12.3
2018-07-14T03:53:21.846Z,12.3
2018-07-14T03:54:21.823Z,12.3
2018-07-14T03:55:21.764Z,12.3
2018-07-14T03:56:21.786Z,12.2
2018-07-14T03:57:21.821Z,12.2
2018-07-14T03:58:21.764Z,12.2
2018-07-14T03:59:21.853Z,12.2
2018-07-14T04:00:21.854Z,12.2
2018-07-14T04:01:21.815Z,12.4
2018-07-14T04:02:21.793Z,12.4
2018-07-14T04:03:21.901Z,12.4
2018-07-14T04:04:21.833Z,12.4
2018-07-14T04:05:22.353Z,12.4
2018-07-14T04:06:21.869Z,12.4
2018-07-14T04:07:21.826Z,12.3
2018-07-14T04:08:21.863Z,12.3
2018-07-14T04:09:23.915Z,12.2
2018-07-14T04:10:21.819Z,12.2
2018-07-14T04:11:21.796Z,12.2
2018-07-14T04:12:21.837Z,12.3
2018-07-14T04:13:21.818Z,12.3
2018-07-14T04:14:21.792Z,12.3
2018-07-14T04:15:21.817Z,12.3
2018-07-14T04:16:21.887Z,12.3
2018-07-14T04:17:21.852Z,12.3
2018-07-14T04:18:21.812Z,12.3
2018-07-14T04:19:39.015Z,12.4
2018-07-14T04:20:21.803Z,12.4
2018-07-14T04:21:21.842Z,12.4
2018-07-14T04:22:21.863Z,12.4
2018-07-14T04:23:22.000Z,12.4
2018-07-14T04:24:21.975Z,12.4
2018-07-14T04:25:21.940Z,12.4
2018-07-14T04:26:21.827Z,12.4
2018-07-14T04:27:21.778Z,12.4
2018-07-14T04:28:21.846Z,12.4
2018-07-14T04:29:21.874Z,12.4
2018-07-14T04:30:22.236Z,12.4
2018-07-14T04:31:21.886Z,12.4
2018-07-14T04:32:21.918Z,12.3
2018-07-14T04:33:21.856Z,12.3
2018-07-14T04:34:21.870Z,12.3
2018-07-14T04:35:21.894Z,12.3
2018-07-14T04:36:21.912Z,12.3
2018-07-14T04:37:21.916Z,12.4
2018-07-14T04:38:21.860Z,12.4
2018-07-14T04:39:21.943Z,12.4
2018-07-14T04:40:21.892Z,12.7
2018-07-14T04:41:21.877Z,12.7
2018-07-14T04:42:22.010Z,12.8
2018-07-14T04:43:21.866Z,12.8
2018-07-14T04:44:21.952Z,12.8
2018-07-14T04:45:21.858Z,13.0
2018-07-14T04:46:22.895Z,13.0
2018-07-14T04:47:21.898Z,13.1
2018-07-14T04:48:21.888Z,13.1
2018-07-14T04:49:21.878Z,13.1
2018-07-14T04:50:21.906Z,13.2
2018-07-14T04:51:21.979Z,13.2
2018-07-14T04:52:21.981Z,13.4
2018-07-14T04:53:21.881Z,13.4
2018-07-14T04:54:21.886Z,13.4
2018-07-14T04:55:21.894Z,13.4
2018-07-14T04:56:21.919Z,13.4
2018-07-14T04:57:21.896Z,13.8
2018-07-14T04:58:21.871Z,13.8
2018-07-14T04:59:21.961Z,13.8
2018-07-14T05:00:21.975Z,14.1
2018-07-14T05:01:21.999Z,14.1
2018-07-14T05:02:21.942Z,14.4
2018-07-14T05:03:21.984Z,14.4
2018-07-14T05:04:21.894Z,14.4
2018-07-14T05:05:21.959Z,14.8
2018-07-14T05:06:24.135Z,14.8
2018-07-14T05:07:21.889Z,14.8
2018-07-14T05:08:21.897Z,15.1
2018-07-14T05:09:21.947Z,15.1
2018-07-14T05:10:21.971Z,15.2
2018-07-14T05:11:21.972Z,15.2
2018-07-14T05:12:21.935Z,15.2
2018-07-14T05:13:21.909Z,15.3
2018-07-14T05:14:21.953Z,15.3
2018-07-14T05:15:21.957Z,15.5
2018-07-14T05:16:21.965Z,15.5
2018-07-14T05:17:21.991Z,15.5
2018-07-14T05:18:21.979Z,15.8
2018-07-14T05:19:22.071Z,15.8
2018-07-14T05:20:21.956Z,16.3
2018-07-14T05:21:21.975Z,16.3
2018-07-14T05:22:21.968Z,16.3
2018-07-14T05:23:21.934Z,16.4
2018-07-14T05:24:21.946Z,16.4
2018-07-14T05:25:21.940Z,16.6
2018-07-14T05:26:23.006Z,16.6
2018-07-14T05:27:22.031Z,16.6
2018-07-14T05:28:21.950Z,16.7
2018-07-14T05:29:21.935Z,16.7
2018-07-14T05:30:21.921Z,16.9
2018-07-14T05:31:21.951Z,16.9
2018-07-14T05:32:21.985Z,16.9
2018-07-14T05:33:21.976Z,17.0
2018-07-14T05:34:22.130Z,17.0
2018-07-14T05:35:22.155Z,17.0
2018-07-14T05:36:21.973Z,17.0
2018-07-14T05:37:21.963Z,17.0
2018-07-14T05:38:22.675Z,17.0
2018-07-14T05:39:21.965Z,17.0
2018-07-14T05:40:21.974Z,17.0
2018-07-14T05:41:22.020Z,16.4
2018-07-14T05:42:22.576Z,16.4
2018-07-14T05:43:22.167Z,16.1
2018-07-14T05:44:22.001Z,16.1
2018-07-14T05:45:22.069Z,16.1
2018-07-14T05:46:22.046Z,16.3
2018-07-14T05:47:22.047Z,16.3
2018-07-14T05:48:22.134Z,16.4
2018-07-14T05:49:21.975Z,16.4
2018-07-14T05:50:22.022Z,16.4
2018-07-14T05:51:21.972Z,16.6
2018-07-14T05:52:22.789Z,16.6
2018-07-14T05:53:22.020Z,16.8
2018-07-14T05:54:21.986Z,16.8
2018-07-14T05:55:22.127Z,16.8
2018-07-14T05:56:22.042Z,16.9
2018-07-14T05:57:22.074Z,16.9
2018-07-14T05:58:22.063Z,17.0
2018-07-14T05:59:22.041Z,17.0
2018-07-14T06:00:22.024Z,17.0
2018-07-14T06:01:22.036Z,17.2
2018-07-14T06:02:22.090Z,17.2
2018-07-14T06:03:22.068Z,17.3
2018-07-14T06:04:22.100Z,17.3
2018-07-14T06:05:22.068Z,17.3
2018-07-14T06:06:22.058Z,17.3
2018-07-14T06:07:22.126Z,17.3
2018-07-14T06:08:22.056Z,17.3
2018-07-14T06:09:22.038Z,17.4
2018-07-14T06:10:22.085Z,17.4
2018-07-14T06:11:22.078Z,17.9
2018-07-14T06:12:22.134Z,17.9
2018-07-14T06:13:22.068Z,17.9
2018-07-14T06:14:22.184Z,18.5
2018-07-14T06:15:22.092Z,18.5
2018-07-14T06:16:22.082Z,18.5
2018-07-14T06:17:22.262Z,18.5
2018-07-14T06:18:22.085Z,18.5
2018-07-14T06:19:22.237Z,19.6
2018-07-14T06:20:22.067Z,19.6
2018-07-14T06:21:22.073Z,19.9
2018-07-14T06:22:22.140Z,19.9
2018-07-14T06:23:22.237Z,19.9
2018-07-14T06:24:22.108Z,20.0
2018-07-14T06:25:22.104Z,20.0
2018-07-14T06:26:22.109Z,20.0
2018-07-14T06:27:22.126Z,20.0
2018-07-14T06:28:22.084Z,20.0
2018-07-14T06:29:22.182Z,20.8
2018-07-14T06:31:14.547Z,20.8
2018-07-14T06:31:22.496Z,20.8
2018-07-14T06:32:22.431Z,21.4
2018-07-14T06:33:22.524Z,21.4
2018-07-14T06:34:22.441Z,21.8
2018-07-14T06:35:22.379Z,21.8
2018-07-14T06:36:22.429Z,22.1
2018-07-14T06:37:22.429Z,22.1
2018-07-14T06:38:22.532Z,22.1
2018-07-14T06:39:22.546Z,22.3
2018-07-14T06:40:22.410Z,22.3
2018-07-14T06:41:22.394Z,22.3
2018-07-14T06:42:22.480Z,22.9
2018-07-14T06:43:22.474Z,22.9
2018-07-14T06:44:22.456Z,23.2
2018-07-14T06:45:22.516Z,23.2
2018-07-14T06:46:22.426Z,23.2
2018-07-14T06:47:22.394Z,23.6
2018-07-14T06:48:22.492Z,23.6
2018-07-14T06:49:32.828Z,23.1
2018-07-14T06:50:22.433Z,23.1
2018-07-14T06:51:22.420Z,23.1
2018-07-14T06:52:22.447Z,23.3
2018-07-14T06:53:22.528Z,23.3
2018-07-14T06:54:22.688Z,23.6
2018-07-14T06:55:22.452Z,23.6
2018-07-14T06:56:22.544Z,23.6
2018-07-14T06:57:22.435Z,23.6
2018-07-14T06:58:22.449Z,23.6
2018-07-14T06:59:22.526Z,23.0
2018-07-14T07:00:22.475Z,23.0
2018-07-14T07:01:22.485Z,23.0
2018-07-14T07:02:22.507Z,22.4
2018-07-14T07:03:22.535Z,22.4
2018-07-14T07:04:22.480Z,22.1
2018-07-14T07:05:22.448Z,22.1
2018-07-14T07:06:22.520Z,22.1
2018-07-14T07:07:22.437Z,22.2
2018-07-14T07:08:24.657Z,22.2
2018-07-14T07:09:22.493Z,22.2
2018-07-14T07:10:22.515Z,22.2
2018-07-14T07:11:22.483Z,22.2
2018-07-14T07:12:22.427Z,22.1
2018-07-14T07:13:22.451Z,22.1
2018-07-14T07:14:22.441Z,22.1
2018-07-14T07:15:22.527Z,22.0
2018-07-14T07:16:22.472Z,22.0
2018-07-14T07:17:22.494Z,22.1
2018-07-14T07:18:22.602Z,22.1
2018-07-14T07:19:22.512Z,22.1
2018-07-14T07:20:22.541Z,22.2
2018-07-14T07:21:22.630Z,22.2
2018-07-14T07:22:22.672Z,22.0
2018-07-14T07:23:22.642Z,22.0
2018-07-14T07:24:22.675Z,22.0
2018-07-14T07:25:22.841Z,22.1
2018-07-14T07:26:22.520Z,22.1
2018-07-14T07:27:22.558Z,22.2
2018-07-14T07:28:22.635Z,22.2
2018-07-14T07:29:22.495Z,22.2
2018-07-14T07:30:22.498Z,22.3
2018-07-14T07:31:22.465Z,22.3
2018-07-14T07:32:22.477Z,22.4
2018-07-14T07:33:22.548Z,22.4
2018-07-14T07:34:22.545Z,22.4
2018-07-14T07:35:22.496Z,22.4
2018-07-14T07:36:22.514Z,22.4
2018-07-14T07:37:22.483Z,22.4
2018-07-14T07:38:22.571Z,22.4
2018-07-14T07:39:22.698Z,22.4
2018-07-14T07:40:22.776Z,22.5
2018-07-14T07:41:22.546Z,22.5
2018-07-14T07:42:22.769Z,22.5
2018-07-14T07:43:23.424Z,22.4
2018-07-14T07:44:22.702Z,22.4
2018-07-14T07:45:22.578Z,22.7
2018-07-14T07:46:23.295Z,22.7
2018-07-14T07:47:22.649Z,22.7
2018-07-14T07:48:22.690Z,22.7
2018-07-14T07:49:22.522Z,22.7
2018-07-14T07:50:22.539Z,22.4
2018-07-14T07:51:22.534Z,22.4
2018-07-14T07:52:22.543Z,22.4
2018-07-14T07:53:23.200Z,22.7
2018-07-14T07:54:23.372Z,22.7
2018-07-14T07:55:22.615Z,23.1
2018-07-14T07:56:22.670Z,23.1
2018-07-14T07:57:22.653Z,23.1
2018-07-14T07:58:25.280Z,23.1
2018-07-14T07:59:22.677Z,23.1
2018-07-14T08:00:22.717Z,22.6
2018-07-14T08:02:35.427Z,22.6
2018-07-14T08:03:36.844Z,22.2
2018-07-14T08:04:35.526Z,22.2
2018-07-14T08:05:36.211Z,22.1
2018-07-14T08:06:35.674Z,22.1
2018-07-14T08:07:35.424Z,22.1
2018-07-14T08:09:35.371Z,22.2
2018-07-14T08:10:35.922Z,22.2
2018-07-14T08:11:35.258Z,22.2
2018-07-14T08:12:35.320Z,22.2
2018-07-14T08:13:36.027Z,22.2
2018-07-14T08:14:35.380Z,22.2
2018-07-14T08:16:35.417Z,22.5
2018-07-14T08:17:35.428Z,22.5
2018-07-14T08:18:35.397Z,22.5
2018-07-14T08:19:35.344Z,22.5
2018-07-14T08:20:37.678Z,23.0
2018-07-14T08:21:35.335Z,23.0
2018-07-14T08:22:35.487Z,23.0
2018-07-14T08:23:35.265Z,23.4
2018-07-14T08:24:35.353Z,23.4
2018-07-14T08:25:35.350Z,23.4
2018-07-14T08:26:35.309Z,23.5
2018-07-14T08:27:35.629Z,23.5
2018-07-14T08:28:35.434Z,23.5
2018-07-14T08:29:35.234Z,23.5
2018-07-14T08:30:45.447Z,23.5
2018-07-14T08:31:40.350Z,23.5
2018-07-14T08:32:35.433Z,23.5
2018-07-14T08:33:35.902Z,23.5
2018-07-14T08:34:35.349Z,23.5
2018-07-14T08:35:35.518Z,23.5
2018-07-14T08:36:35.301Z,23.9
2018-07-14T08:37:35.303Z,23.9
2018-07-14T08:38:35.397Z,23.9
2018-07-14T08:39:35.395Z,23.9
2018-07-14T08:40:35.233Z,23.9
2018-07-14T08:41:35.232Z,23.9
2018-07-14T08:42:36.113Z,23.9
2018-07-14T08:43:35.522Z,24.3
2018-07-14T08:44:35.336Z,24.3
2018-07-14T08:45:35.451Z,24.3
2018-07-14T08:46:35.263Z,24.3
2018-07-14T08:47:35.306Z,24.3
2018-07-14T08:49:27.846Z,24.3
2018-07-14T08:49:35.906Z,24.3
2018-07-14T08:50:36.350Z,24.3
2018-07-14T08:51:35.942Z,24.1
2018-07-14T08:52:36.047Z,24.1
2018-07-14T08:53:35.976Z,24.1
2018-07-14T08:54:35.902Z,24.0
2018-07-14T08:55:35.884Z,24.0
2018-07-14T08:56:35.848Z,24.5
2018-07-14T08:57:35.892Z,24.5
2018-07-14T08:58:35.853Z,24.5
2018-07-14T08:59:35.809Z,24.5
2018-07-14T09:00:35.950Z,24.5
2018-07-14T09:01:35.827Z,24.6
2018-07-14T09:02:35.834Z,24.6
2018-07-14T09:03:35.846Z,24.6
2018-07-14T09:04:35.919Z,24.6
2018-07-14T09:05:35.840Z,24.6
2018-07-14T09:06:35.793Z,25.0
2018-07-14T09:07:35.927Z,25.0
2018-07-14T09:08:35.875Z,25.0
2018-07-14T09:09:35.883Z,25.0
2018-07-14T09:10:36.034Z,25.0
2018-07-14T09:11:35.888Z,25.0
2018-07-14T09:12:35.815Z,25.0
2018-07-14T09:13:35.677Z,25.0
2018-07-14T09:14:35.764Z,24.8
2018-07-14T09:15:35.829Z,24.8
2018-07-14T09:16:35.879Z,24.8
2018-07-14T09:17:36.411Z,24.8
2018-07-14T09:18:35.923Z,24.8
2018-07-14T09:19:36.091Z,24.8
2018-07-14T09:20:36.071Z,24.8
2018-07-14T09:21:35.852Z,24.8
2018-07-14T09:22:35.931Z,24.8
2018-07-14T09:23:35.847Z,24.8
2018-07-14T09:24:35.890Z,0.0
2018-07-14T09:25:35.906Z,0.0
2018-07-14T09:26:35.931Z,0.0
2018-07-14T09:27:36.512Z,0.0
2018-07-14T09:28:35.944Z,0.0
2018-07-14T09:29:35.840Z,25.2
2018-07-14T09:30:35.998Z,25.2
2018-07-14T09:31:35.879Z,25.2
2018-07-14T09:32:40.922Z,25.2
2018-07-14T09:33:35.928Z,25.2
2018-07-14T09:34:35.950Z,25.2
2018-07-14T09:35:36.090Z,25.2
2018-07-14T09:36:36.020Z,25.2
2018-07-14T09:37:36.480Z,25.2
2018-07-14T09:38:35.972Z,25.2
2018-07-14T09:39:35.947Z,0.0
2018-07-14T09:40:35.890Z,0.0
2018-07-14T09:41:35.944Z,0.0
2018-07-14T09:42:35.918Z,26.4
2018-07-14T09:43:36.157Z,26.4
2018-07-14T09:44:36.108Z,26.4
2018-07-14T09:45:35.977Z,26.4
2018-07-14T09:46:36.077Z,26.4
2018-07-14T09:47:36.763Z,25.9
2018-07-14T09:48:35.943Z,25.9
2018-07-14T09:49:35.961Z,26.2
2018-07-14T09:50:35.935Z,26.2
2018-07-14T09:51:35.955Z,26.2
2018-07-14T09:52:36.010Z,25.5
2018-07-14T09:53:36.035Z,25.5
2018-07-14T09:54:36.035Z,25.5
2018-07-14T09:55:36.472Z,25.5
2018-07-14T09:56:35.936Z,25.5
2018-07-14T09:57:36.084Z,25.5
2018-07-14T09:58:36.756Z,25.5
2018-07-14T09:59:36.006Z,25.5
2018-07-14T10:00:36.094Z,26.2
2018-07-14T10:01:35.913Z,26.2
2018-07-14T10:02:35.932Z,26.0
2018-07-14T10:03:35.937Z,26.0
2018-07-14T10:04:35.956Z,26.0
2018-07-14T10:05:35.990Z,25.3
2018-07-14T10:06:36.021Z,25.3
2018-07-14T10:07:36.029Z,25.3
2018-07-14T10:08:36.046Z,25.3
2018-07-14T10:09:36.006Z,25.3
2018-07-14T10:10:36.089Z,25.6
2018-07-14T10:11:35.996Z,25.6
2018-07-14T10:12:36.073Z,25.6
2018-07-14T10:13:36.234Z,25.6
2018-07-14T10:14:36.029Z,25.6
2018-07-14T10:15:35.966Z,25.6
2018-07-14T10:16:36.041Z,25.6
2018-07-14T10:17:36.074Z,25.6
2018-07-14T10:18:40.816Z,25.6
2018-07-14T10:19:36.609Z,25.6
2018-07-14T10:20:36.095Z,25.6
2018-07-14T10:23:15.624Z,25.6
2018-07-14T10:23:23.728Z,25.6
2018-07-14T10:24:23.696Z,26.0
2018-07-14T10:25:23.791Z,26.0
2018-07-14T10:26:23.680Z,26.0
2018-07-14T10:27:24.153Z,26.0
2018-07-14T10:28:23.627Z,26.4
2018-07-14T10:29:23.702Z,26.4
2018-07-14T10:30:25.426Z,26.4
2018-07-14T10:31:24.533Z,26.4
2018-07-14T10:32:24.182Z,26.4
2018-07-14T10:33:23.585Z,26.4
2018-07-14T10:34:23.656Z,26.4
2018-07-14T10:35:23.565Z,26.4
2018-07-14T10:36:23.742Z,26.4
2018-07-14T10:37:24.376Z,26.4
2018-07-14T10:38:23.617Z,26.4
2018-07-14T10:39:24.293Z,26.4
2018-07-14T10:40:23.759Z,27.2
2018-07-14T10:41:24.314Z,27.2
2018-07-14T10:42:23.766Z,27.2
2018-07-14T10:43:23.713Z,27.2
2018-07-14T10:44:23.748Z,27.2
2018-07-14T10:45:24.480Z,27.2
2018-07-14T10:46:23.764Z,27.2
2018-07-14T10:47:23.765Z,27.2
2018-07-14T10:48:25.688Z,26.9
2018-07-14T10:49:23.747Z,26.9
2018-07-14T10:50:23.678Z,26.9
2018-07-14T10:51:23.736Z,26.9
2018-07-14T10:52:25.814Z,26.9
2018-07-14T10:53:24.368Z,27.3
2018-07-14T10:54:24.370Z,27.3
2018-07-14T10:55:24.177Z,27.3
2018-07-14T10:56:23.798Z,27.3
2018-07-14T10:57:24.374Z,27.3
2018-07-14T10:58:26.053Z,27.3
2018-07-14T10:59:23.884Z,27.3
2018-07-14T11:00:24.493Z,27.3
2018-07-14T11:01:23.964Z,27.3
2018-07-14T11:02:23.815Z,27.3
2018-07-14T11:03:24.824Z,28.5
2018-07-14T11:04:23.811Z,28.5
2018-07-14T11:05:23.860Z,28.5
2018-07-14T11:06:23.788Z,28.5
2018-07-14T11:07:26.061Z,28.5
2018-07-14T11:08:23.785Z,27.9
2018-07-14T11:09:23.918Z,27.9
2018-07-14T11:10:23.857Z,27.9
2018-07-14T11:11:25.161Z,27.9
2018-07-14T11:12:23.912Z,27.9
2018-07-14T11:13:23.732Z,27.9
2018-07-14T11:14:23.770Z,27.9
2018-07-14T11:15:23.784Z,27.9
2018-07-14T11:16:23.814Z,27.9
2018-07-14T11:17:23.810Z,27.9
2018-07-14T11:18:23.866Z,27.9
2018-07-14T11:19:23.756Z,0.0
2018-07-14T11:20:23.867Z,0.0
2018-07-14T11:21:23.841Z,0.0
2018-07-14T11:22:23.810Z,0.0
2018-07-14T11:23:23.771Z,0.0
2018-07-14T11:24:23.766Z,0.0
2018-07-14T11:25:23.864Z,0.0
2018-07-14T11:26:23.819Z,0.0
2018-07-14T11:27:52.049Z,0.0
2018-07-14T11:28:24.447Z,0.0
2018-07-14T11:29:23.748Z,0.0
2018-07-14T11:30:23.768Z,0.0
2018-07-14T11:31:23.982Z,24.8
2018-07-14T11:32:23.907Z,24.8
2018-07-14T11:33:23.731Z,24.8
2018-07-14T11:34:23.793Z,24.9
2018-07-14T11:35:23.761Z,24.9
2018-07-14T11:36:23.762Z,24.8
2018-07-14T11:37:23.835Z,24.8
2018-07-14T11:38:23.725Z,24.8
2018-07-14T11:39:23.772Z,24.8
2018-07-14T11:40:24.755Z,24.8
2018-07-14T11:41:23.715Z,24.8
2018-07-14T11:42:23.888Z,24.8
2018-07-14T11:43:23.758Z,24.8
2018-07-14T11:44:23.741Z,24.2
2018-07-14T11:45:23.785Z,24.2
2018-07-14T11:46:23.837Z,24.2
2018-07-14T11:47:24.443Z,23.8
2018-07-14T11:48:24.385Z,23.8
2018-07-14T11:49:23.769Z,23.8
2018-07-14T11:50:23.904Z,23.8
2018-07-14T11:51:23.813Z,23.8
2018-07-14T11:52:23.762Z,23.8
2018-07-14T11:53:23.675Z,23.8
2018-07-14T11:54:23.901Z,23.8
2018-07-14T11:55:23.729Z,23.8
2018-07-14T11:56:24.482Z,23.8
2018-07-14T11:58:16.622Z,23.8
2018-07-14T11:58:24.698Z,23.8
2018-07-14T11:59:24.660Z,22.2
2018-07-14T12:00:24.681Z,22.2
2018-07-14T12:01:24.737Z,22.2
2018-07-14T12:02:24.804Z,22.2
2018-07-14T12:03:24.787Z,22.2
2018-07-14T12:04:24.702Z,22.0
2018-07-14T12:05:24.620Z,22.0
2018-07-14T12:06:24.612Z,22.0
2018-07-14T12:07:24.908Z,21.9
2018-07-14T12:08:24.680Z,21.9
2018-07-14T12:09:24.561Z,21.9
2018-07-14T12:10:24.718Z,21.9
2018-07-14T12:11:24.562Z,21.9
2018-07-14T12:12:24.532Z,21.9
2018-07-14T12:13:24.699Z,21.9
2018-07-14T12:14:24.704Z,21.9
2018-07-14T12:15:24.632Z,22.4
2018-07-14T12:16:24.584Z,22.4
2018-07-14T12:17:25.144Z,23.1
2018-07-14T12:18:24.572Z,23.1
2018-07-14T12:19:24.659Z,23.1
2018-07-14T12:20:24.584Z,23.1
2018-07-14T12:21:24.606Z,23.1
2018-07-14T12:22:24.695Z,23.1
2018-07-14T12:23:24.610Z,23.1
2018-07-14T12:24:24.819Z,23.1
2018-07-14T12:25:24.808Z,23.1
2018-07-14T12:26:25.039Z,23.1
2018-07-14T12:30:38.936Z,24.2
2018-07-14T12:30:46.937Z,24.2
2018-07-14T12:31:46.902Z,23.7
2018-07-14T12:32:46.908Z,23.4
2018-07-14T12:33:47.024Z,23.4
2018-07-14T12:34:46.955Z,23.4
2018-07-14T12:35:46.843Z,23.4
2018-07-14T12:36:47.148Z,23.4
2018-07-14T12:37:47.035Z,23.4
2018-07-14T12:38:47.064Z,23.4
2018-07-14T12:39:47.060Z,23.4
2018-07-14T12:40:47.046Z,23.4
2018-07-14T12:41:46.982Z,23.4
2018-07-14T12:42:46.978Z,23.8
2018-07-14T12:43:46.948Z,23.8
2018-07-14T12:44:46.917Z,23.8
2018-07-14T12:45:46.866Z,24.0
2018-07-14T12:46:47.206Z,24.0
2018-07-14T12:47:46.901Z,24.0
2018-07-14T12:48:46.888Z,24.0
2018-07-14T12:49:47.117Z,24.0
2018-07-14T12:50:46.946Z,24.1
2018-07-14T12:51:46.968Z,24.1
2018-07-14T12:52:46.979Z,24.2
2018-07-14T12:53:47.021Z,24.2
2018-07-14T12:54:46.997Z,24.2
2018-07-14T12:55:46.959Z,24.3
2018-07-14T12:56:46.997Z,24.3
2018-07-14T12:57:47.025Z,24.6
2018-07-14T12:58:47.042Z,24.6
2018-07-14T12:59:47.004Z,24.6
2018-07-14T13:00:47.105Z,24.6
2018-07-14T13:01:47.027Z,24.6
2018-07-14T13:02:47.097Z,24.6
2018-07-14T13:04:15.262Z,24.6
2018-07-14T13:04:47.204Z,24.6
2018-07-14T13:05:47.013Z,25.6
2018-07-14T13:06:47.005Z,25.6
2018-07-14T13:07:47.188Z,25.6
2018-07-14T13:08:47.069Z,26.0
2018-07-14T13:09:47.080Z,26.0
2018-07-14T13:10:46.983Z,26.0
2018-07-14T13:11:47.133Z,26.0
2018-07-14T13:12:46.981Z,26.0
2018-07-14T13:13:47.198Z,26.0
2018-07-14T13:14:46.995Z,26.0
2018-07-14T13:15:46.979Z,26.7
2018-07-14T13:16:46.943Z,26.7
2018-07-14T13:17:47.041Z,26.7
2018-07-14T13:18:46.968Z,27.1
2018-07-14T13:19:47.165Z,27.1
2018-07-14T13:20:46.884Z,27.0
2018-07-14T13:21:46.981Z,27.0
2018-07-14T13:22:47.580Z,27.0
2018-07-14T13:23:47.084Z,27.1
2018-07-14T13:24:46.905Z,27.1
2018-07-14T13:25:46.970Z,27.4
2018-07-14T13:26:46.969Z,27.4
2018-07-14T13:27:46.976Z,27.4
2018-07-14T13:28:47.047Z,27.5
2018-07-14T13:29:47.128Z,27.5
2018-07-14T13:30:47.027Z,27.4
2018-07-14T13:31:46.904Z,27.4
2018-07-14T13:32:57.198Z,27.4
2018-07-14T13:33:47.029Z,27.2
2018-07-14T13:34:47.139Z,27.2
2018-07-14T13:35:46.993Z,26.6
2018-07-14T13:36:47.181Z,26.6
2018-07-14T13:37:47.059Z,26.6
2018-07-14T13:38:51.614Z,26.6
2018-07-14T13:39:47.030Z,26.6
2018-07-14T13:40:47.264Z,26.6
2018-07-14T13:41:47.023Z,26.5
2018-07-14T13:42:47.071Z,26.5
2018-07-14T13:43:47.203Z,26.5
2018-07-14T13:44:47.128Z,26.5
2018-07-14T13:45:47.157Z,26.5
2018-07-14T13:46:47.032Z,26.6
2018-07-14T13:47:47.012Z,26.6